createdAt,value
2018-11-10T00:00:39.022Z,22.57
2018-11-10T00:05:42.355Z,20.90
2018-11-10T00:10:45.686Z,20.23
2018-11-10T01:47:52.506Z,14.33
2018-11-10T01:52:56.598Z,12.67
2018-11-10T01:58:06.217Z,14.97
2018-11-10T03:35:11.212Z,14.70
2018-11-10T03:40:14.566Z,12.93
2018-11-10T04:48:34.385Z,10.50
2018-11-10T04:53:37.710Z,11.30
2018-11-10T04:58:41.043Z,12.00
2018-11-10T06:01:16.259Z,12.77
2018-11-10T06:06:19.595Z,13.47
2018-11-10T06:11:22.976Z,12.53
2018-11-10T06:16:26.292Z,14.33
2018-11-10T06:21:29.635Z,13.37
2018-11-10T06:26:32.973Z,12.27
2018-11-10T06:31:37.068Z,13.03
2018-11-10T06:36:40.395Z,12.07
2018-11-10T06:41:44.524Z,11.63
2018-11-10T06:46:47.850Z,12.00
2018-11-10T06:51:51.217Z,12.63
2018-11-10T06:56:54.541Z,11.23
2018-11-10T07:01:57.886Z,9.90
2018-11-10T07:07:01.991Z,12.07
2018-11-10T07:12:05.318Z,8.80
2018-11-10T07:17:08.643Z,10.33
2018-11-10T07:22:12.735Z,12.27
2018-11-10T07:27:32.978Z,12.40
2018-11-10T07:32:36.304Z,13.13
2018-11-10T07:37:40.439Z,10.83
2018-11-10T07:42:44.538Z,10.23
2018-11-10T07:47:47.863Z,9.50
2018-11-10T07:52:51.194Z,9.07
2018-11-10T07:58:12.301Z,9.23
2018-11-10T08:03:15.619Z,10.50
2018-11-10T08:08:29.826Z,11.43
2018-11-10T08:13:33.160Z,9.83
2018-11-10T08:18:36.537Z,9.97
2018-11-10T08:23:40.641Z,10.80
2018-11-10T08:28:43.967Z,8.73
2018-11-10T08:33:48.465Z,10.73
2018-11-10T08:38:51.862Z,9.73
2018-11-10T08:43:55.223Z,9.13
2018-11-10T08:48:58.666Z,9.73
2018-11-10T08:54:02.023Z,9.40
2018-11-10T08:59:06.168Z,11.33
2018-11-10T09:04:10.211Z,9.83
2018-11-10T09:09:13.640Z,12.73
2018-11-10T09:14:17.729Z,10.47
2018-11-10T09:19:21.062Z,11.13
2018-11-10T09:24:24.386Z,10.33
2018-11-10T09:29:28.064Z,10.70
2018-11-10T09:34:31.667Z,10.70
2018-11-10T09:39:34.999Z,10.80
2018-11-10T09:44:38.330Z,11.53
2018-11-10T09:49:41.669Z,14.37
2018-11-10T09:54:45.764Z,12.07
2018-11-10T09:59:49.104Z,11.27
2018-11-10T10:04:52.430Z,12.00
2018-11-10T10:09:56.523Z,9.80
2018-11-10T10:14:59.992Z,13.53
2018-11-10T10:20:03.338Z,9.07
2018-11-10T10:25:06.664Z,11.70
2018-11-10T10:30:11.069Z,9.60
2018-11-10T10:35:14.572Z,10.80
2018-11-10T10:40:18.334Z,9.83
2018-11-10T10:45:21.658Z,10.90
2018-11-10T10:50:24.992Z,10.50
2018-11-10T10:55:28.315Z,8.27
2018-11-10T11:00:32.414Z,9.67
2018-11-10T11:05:35.735Z,9.80
2018-11-10T11:10:39.061Z,10.07
2018-11-10T11:15:43.246Z,9.97
2018-11-10T11:20:46.522Z,8.97
2018-11-10T11:25:54.403Z,12.10
2018-11-10T11:30:57.760Z,7.57
2018-11-10T11:36:01.096Z,9.43
2018-11-10T11:41:04.471Z,7.67
2018-11-10T11:46:07.803Z,7.30
2018-11-10T11:51:11.147Z,7.47
2018-11-10T11:56:14.480Z,10.87
2018-11-10T12:01:17.822Z,9.00
2018-11-10T12:06:22.770Z,10.97
2018-11-10T12:11:26.870Z,9.37
2018-11-10T12:16:33.844Z,10.97
2018-11-10T12:21:37.890Z,6.00
2018-11-10T12:26:41.227Z,9.20
2018-11-10T12:31:44.600Z,11.23
2018-11-10T12:36:47.922Z,9.93
2018-11-10T12:41:51.247Z,12.17
2018-11-10T12:46:54.588Z,11.70
2018-11-10T12:51:58.696Z,10.17
2018-11-10T12:57:02.063Z,11.10
2018-11-10T13:02:05.397Z,12.40
2018-11-10T13:07:08.744Z,12.33
2018-11-10T13:12:12.139Z,11.80
2018-11-10T13:17:15.496Z,14.03
2018-11-10T13:22:18.807Z,13.30
2018-11-10T13:27:22.907Z,12.67
2018-11-10T13:32:26.230Z,10.13
2018-11-10T13:37:29.577Z,11.17
2018-11-10T13:42:32.907Z,12.37
2018-11-10T13:47:36.245Z,10.77
2018-11-10T13:52:39.952Z,11.77
2018-11-10T13:57:43.711Z,11.63
2018-11-10T14:02:47.045Z,11.87
2018-11-10T14:07:51.193Z,13.63
2018-11-10T14:12:54.540Z,11.73
2018-11-10T14:18:06.439Z,14.77
2018-11-10T14:23:09.773Z,10.70
2018-11-10T14:28:20.641Z,15.73
2018-11-10T14:33:24.032Z,15.57
2018-11-10T14:38:27.367Z,16.90
2018-11-10T14:43:30.731Z,22.53
2018-11-10T14:48:34.830Z,22.80
2018-11-10T14:53:38.168Z,27.47
2018-11-10T14:58:41.616Z,25.10
2018-11-10T15:03:44.862Z,22.43
2018-11-10T15:08:48.203Z,21.40
2018-11-10T15:13:51.552Z,24.73
2018-11-10T15:18:54.890Z,25.43
2018-11-10T15:23:58.229Z,28.73
2018-11-10T15:29:01.568Z,25.30
2018-11-10T15:34:04.908Z,24.07
2018-11-10T15:39:08.244Z,28.80
2018-11-10T15:44:11.584Z,25.07
2018-11-10T15:49:14.939Z,27.50
2018-11-10T15:54:19.064Z,26.63
2018-11-10T15:59:22.398Z,25.40
2018-11-10T16:04:25.738Z,28.03
2018-11-10T16:09:29.075Z,28.27
2018-11-10T16:14:35.996Z,30.07
2018-11-10T16:19:41.150Z,27.87
2018-11-10T16:24:45.255Z,31.47
2018-11-10T16:29:48.603Z,30.73
2018-11-10T16:34:51.936Z,36.67
2018-11-10T16:39:57.998Z,24.73
2018-11-10T16:45:01.332Z,28.47
2018-11-10T16:50:04.662Z,32.73
2018-11-10T16:55:08.067Z,29.37
2018-11-10T17:00:12.112Z,32.90
2018-11-10T17:05:24.010Z,32.23
2018-11-10T17:10:31.715Z,29.27
2018-11-10T17:15:37.713Z,34.67
2018-11-10T17:20:41.332Z,30.37
2018-11-10T17:25:48.097Z,26.80
2018-11-10T17:30:54.576Z,26.20
2018-11-10T17:35:57.916Z,25.73
2018-11-10T17:41:01.260Z,25.87
2018-11-10T17:46:04.596Z,25.53
2018-11-10T17:51:08.699Z,25.03
2018-11-10T17:56:12.056Z,24.10
2018-11-10T18:01:15.406Z,22.77
2018-11-10T18:06:18.769Z,22.83
2018-11-10T18:11:22.102Z,25.67
2018-11-10T18:16:26.378Z,20.63
2018-11-10T18:21:29.716Z,20.63
2018-11-10T18:26:33.808Z,24.17
2018-11-10T18:31:37.139Z,31.10
2018-11-10T18:36:40.492Z,28.07
2018-11-10T18:41:43.827Z,28.60
2018-11-10T18:46:47.254Z,23.63
2018-11-10T18:51:50.532Z,20.70
2018-11-10T18:56:53.888Z,21.07
2018-11-10T19:01:57.228Z,23.13
2018-11-10T19:07:00.563Z,21.80
2018-11-10T19:12:04.674Z,20.20
2018-11-10T19:17:08.787Z,19.20
2018-11-10T19:22:12.135Z,22.33
2018-11-10T19:27:15.468Z,22.23
2018-11-10T19:32:18.867Z,25.07
2018-11-10T19:37:22.166Z,27.63
2018-11-10T19:42:26.266Z,25.57
2018-11-10T19:47:33.326Z,27.67
2018-11-10T19:52:36.656Z,29.73
2018-11-10T19:57:39.984Z,31.73
2018-11-10T20:02:43.320Z,27.97
2018-11-10T20:07:46.728Z,23.50
2018-11-10T20:12:50.016Z,23.40
2018-11-10T20:17:56.936Z,27.43
2018-11-10T20:23:00.271Z,29.70
2018-11-10T20:28:04.374Z,34.00
2018-11-10T20:33:07.710Z,36.40
2018-11-10T20:43:49.002Z,37.80
2018-11-10T20:48:52.323Z,36.57
2018-11-10T20:53:55.661Z,31.17
2018-11-10T20:58:58.995Z,32.00
2018-11-10T21:04:02.339Z,23.43
2018-11-10T21:09:05.670Z,29.83
2018-11-10T21:14:09.215Z,28.03
2018-11-10T21:19:12.549Z,26.47
2018-11-10T21:24:15.878Z,30.63
2018-11-10T21:29:19.282Z,30.90
2018-11-10T21:34:22.564Z,29.53
2018-11-10T21:39:25.900Z,31.40
2018-11-10T21:44:29.995Z,33.97
2018-11-10T21:49:33.375Z,31.17
2018-11-10T21:54:36.690Z,32.20
2018-11-10T21:59:40.022Z,30.50
2018-11-10T22:04:43.360Z,31.23
2018-11-10T22:09:47.063Z,24.10
2018-11-10T22:14:50.394Z,28.17
2018-11-10T22:19:53.729Z,35.87
2018-11-10T22:24:58.542Z,26.50
2018-11-10T22:30:01.993Z,32.10
2018-11-10T22:35:05.375Z,24.63
2018-11-10T22:40:08.947Z,22.87
2018-11-10T22:45:12.415Z,17.43
2018-11-10T22:50:16.918Z,17.97
2018-11-10T22:55:20.262Z,19.73
2018-11-10T23:00:23.634Z,21.20
2018-11-10T23:05:26.970Z,17.07
2018-11-10T23:10:30.298Z,16.40
2018-11-10T23:15:33.654Z,16.57
2018-11-10T23:20:36.982Z,17.03
2018-11-10T23:25:40.335Z,18.07
2018-11-10T23:30:43.670Z,16.97
2018-11-10T23:35:47.768Z,16.97
2018-11-10T23:40:51.113Z,16.63
2018-11-10T23:45:54.439Z,16.13
2018-11-10T23:50:57.785Z,13.50
2018-11-10T23:56:01.120Z,14.07
